Terminal Aerodrome Forecast
Issued by NWS

Home | Current Version | Previous Version | Graphics & Text | Print | Product List | Glossary On
Versions: 1 2 3 4 5 6 7 8 9 10 11 12 13 14 15 16 17 18 19 20 21 22 23 24 25
416
FTUS43 KTOP 221130
TAFMHK
TAF
KMHK 221130Z 2212/2312 01005KT P6SM OVC050
     FM221300 36008KT P6SM OVC025
     FM221600 35010KT P6SM BKN040
     FM230000 31005KT P6SM SCT050 SCT100=

USA.gov is the U.S. government's official web portal to all federal, state and local government web resources and services.